createdAt,value
2023-03-17T00:01:57.312Z,14.70
2023-03-17T00:04:27.447Z,12.30
2023-03-17T00:06:56.843Z,11.20
2023-03-17T00:09:25.787Z,12.90
2023-03-17T00:11:54.725Z,11.10
2023-03-17T00:14:22.886Z,13.60
2023-03-17T00:16:52.767Z,11.40
2023-03-17T00:19:32.423Z,15.10
2023-03-17T00:22:02.505Z,12.00
2023-03-17T00:24:31.128Z,12.00
2023-03-17T00:26:59.758Z,11.10
2023-03-17T00:29:28.093Z,10.70
2023-03-17T00:31:57.712Z,11.60
2023-03-17T00:34:25.799Z,12.50
2023-03-17T00:36:54.535Z,8.40
2023-03-17T00:39:25.563Z,8.70
2023-03-17T00:41:55.821Z,10.40
2023-03-17T00:44:24.356Z,11.30
2023-03-17T00:46:54.543Z,8.10
2023-03-17T00:49:25.148Z,15.40
2023-03-17T00:51:53.315Z,8.80
2023-03-17T00:54:23.429Z,9.40
2023-03-17T00:56:52.690Z,7.90
2023-03-17T00:59:26.444Z,12.10
2023-03-17T01:01:54.365Z,8.70
2023-03-17T01:04:24.014Z,10.20
2023-03-17T01:06:53.099Z,8.00
2023-03-17T01:09:26.038Z,12.90
2023-03-17T01:11:55.590Z,9.00
2023-03-17T01:14:24.951Z,12.00
2023-03-17T01:16:53.155Z,10.80
2023-03-17T01:19:21.314Z,10.90
2023-03-17T01:21:49.361Z,8.20
2023-03-17T01:24:17.837Z,9.30
2023-03-17T01:26:45.858Z,9.80
2023-03-17T01:29:14.923Z,8.60
2023-03-17T01:31:42.786Z,8.70
2023-03-17T01:34:11.674Z,13.70
2023-03-17T01:36:40.716Z,9.40
2023-03-17T01:39:09.424Z,8.60
2023-03-17T01:41:37.692Z,15.40
2023-03-17T01:44:05.714Z,9.40
2023-03-17T01:46:35.956Z,10.80
2023-03-17T01:49:22.739Z,9.80
2023-03-17T01:51:53.611Z,9.70
2023-03-17T01:54:28.362Z,9.10
2023-03-17T01:57:03.875Z,11.80
2023-03-17T01:59:36.595Z,10.10
2023-03-17T02:02:10.910Z,8.90
2023-03-17T02:04:40.510Z,9.50
2023-03-17T02:07:10.242Z,9.00
2023-03-17T02:09:40.695Z,11.70
2023-03-17T02:12:10.330Z,12.10
2023-03-17T02:14:38.180Z,14.00
2023-03-17T02:17:07.425Z,12.00
2023-03-17T02:19:35.983Z,14.10
2023-03-17T02:22:03.996Z,15.90
2023-03-17T02:24:39.158Z,24.50
2023-03-17T02:27:13.572Z,15.90
2023-03-17T02:29:42.317Z,16.40
2023-03-17T02:32:10.431Z,18.80
2023-03-17T02:34:38.496Z,19.70
2023-03-17T02:37:07.997Z,17.10
2023-03-17T02:39:36.633Z,16.50
2023-03-17T02:42:06.055Z,21.50
2023-03-17T02:44:35.929Z,23.00
2023-03-17T02:47:04.741Z,15.90
2023-03-17T02:49:33.488Z,19.80
2023-03-17T02:52:01.750Z,14.30
2023-03-17T02:54:29.632Z,13.80
2023-03-17T02:56:57.495Z,14.20
2023-03-17T02:59:25.945Z,17.20
2023-03-17T03:01:54.887Z,16.50
2023-03-17T03:04:24.328Z,19.80
2023-03-17T03:06:52.514Z,21.00
2023-03-17T03:09:21.157Z,20.50
2023-03-17T03:11:49.097Z,21.40
2023-03-17T03:14:17.064Z,18.90
2023-03-17T03:16:45.180Z,20.50
2023-03-17T03:19:13.262Z,18.10
2023-03-17T03:21:41.530Z,17.20
2023-03-17T03:24:11.018Z,17.60
2023-03-17T03:26:38.993Z,14.40
2023-03-17T03:29:06.904Z,14.70
2023-03-17T03:31:35.230Z,23.30
2023-03-17T03:34:03.241Z,30.90
2023-03-17T03:36:31.207Z,24.60
2023-03-17T03:39:00.993Z,24.20
2023-03-17T03:41:29.233Z,23.70
2023-03-17T03:43:57.430Z,30.80
2023-03-17T03:46:26.787Z,21.90
2023-03-17T03:48:55.546Z,25.70
2023-03-17T03:51:23.480Z,19.30
2023-03-17T03:53:51.402Z,19.70
2023-03-17T03:56:19.313Z,23.10
2023-03-17T03:58:47.664Z,23.10
2023-03-17T04:01:15.465Z,22.30
2023-03-17T04:03:43.791Z,25.60
2023-03-17T04:06:11.887Z,26.10
2023-03-17T04:08:39.829Z,26.90
2023-03-17T04:11:08.833Z,47.20
2023-03-17T04:13:36.677Z,52.70
2023-03-17T04:16:05.048Z,31.60
2023-03-17T04:18:33.108Z,27.30
2023-03-17T04:21:01.751Z,30.60
2023-03-17T04:23:31.566Z,25.70
2023-03-17T04:25:59.711Z,28.10
2023-03-17T04:28:27.727Z,25.00
2023-03-17T04:30:56.292Z,28.90
2023-03-17T04:33:24.237Z,30.20
2023-03-17T04:35:52.438Z,27.50
2023-03-17T04:38:20.727Z,32.00
2023-03-17T04:40:50.621Z,31.60
2023-03-17T04:43:18.665Z,37.70
2023-03-17T04:45:46.850Z,34.30
2023-03-17T04:48:14.814Z,42.90
2023-03-17T04:50:42.856Z,37.80
2023-03-17T04:53:10.703Z,35.30
2023-03-17T04:55:38.614Z,33.50
2023-03-17T04:58:06.912Z,32.40
2023-03-17T05:00:38.831Z,41.20
2023-03-17T05:03:20.013Z,45.80
2023-03-17T05:05:54.094Z,52.40
2023-03-17T05:08:22.030Z,45.40
2023-03-17T05:10:51.422Z,54.20
2023-03-17T05:13:19.309Z,129.30
2023-03-17T05:15:48.172Z,108.90
2023-03-17T05:18:16.894Z,62.00
2023-03-17T05:20:45.615Z,46.60
2023-03-17T05:23:13.752Z,46.80
2023-03-17T05:25:42.158Z,46.80
2023-03-17T05:28:10.536Z,42.10
2023-03-17T05:30:38.561Z,38.10
2023-03-17T05:33:06.830Z,33.60
2023-03-17T05:35:35.037Z,38.00
2023-03-17T05:38:03.517Z,29.60
2023-03-17T05:40:32.802Z,35.50
2023-03-17T05:43:02.122Z,40.20
2023-03-17T05:45:30.959Z,37.60
2023-03-17T05:48:06.602Z,36.40
2023-03-17T05:50:35.978Z,35.00
2023-03-17T05:53:04.066Z,29.80
2023-03-17T05:55:32.163Z,30.10
2023-03-17T05:58:01.065Z,25.40
2023-03-17T06:00:29.860Z,33.20
2023-03-17T06:02:58.301Z,28.80
2023-03-17T06:05:26.579Z,33.00
2023-03-17T06:07:56.605Z,36.30
2023-03-17T06:10:25.539Z,34.90
2023-03-17T06:12:53.560Z,41.40
2023-03-17T06:15:21.775Z,48.20
2023-03-17T06:17:50.053Z,46.00
2023-03-17T06:20:22.335Z,44.80
2023-03-17T06:23:03.773Z,35.40
2023-03-17T06:25:34.799Z,37.20
2023-03-17T06:28:06.422Z,37.90
2023-03-17T06:30:38.088Z,40.10
2023-03-17T06:33:08.277Z,42.60
2023-03-17T06:35:36.703Z,63.00
2023-03-17T06:38:05.276Z,57.70
2023-03-17T06:40:34.170Z,47.80
2023-03-17T06:43:03.051Z,40.80
2023-03-17T06:45:33.208Z,32.00
2023-03-17T06:48:02.477Z,30.70
2023-03-17T06:50:30.968Z,27.50
2023-03-17T06:52:59.019Z,35.10
2023-03-17T06:55:27.523Z,36.00
2023-03-17T06:57:55.419Z,30.40
2023-03-17T07:00:23.904Z,33.70
2023-03-17T07:02:52.700Z,28.00
2023-03-17T07:05:20.638Z,28.10
2023-03-17T07:07:51.527Z,21.40
2023-03-17T07:10:19.548Z,19.60
2023-03-17T07:12:47.925Z,18.90
2023-03-17T07:15:17.321Z,23.20
2023-03-17T07:17:48.116Z,19.30
2023-03-17T07:20:16.678Z,24.10
2023-03-17T07:22:44.673Z,12.90
2023-03-17T07:25:12.780Z,11.30
2023-03-17T07:27:40.894Z,7.20
2023-03-17T07:30:09.461Z,7.40
2023-03-17T07:32:37.708Z,8.00
2023-03-17T07:35:08.246Z,10.00
2023-03-17T07:37:36.473Z,10.30
2023-03-17T07:40:06.322Z,7.30
2023-03-17T07:42:34.685Z,14.10
2023-03-17T07:45:05.207Z,8.20
2023-03-17T07:47:33.335Z,10.10
2023-03-17T07:50:01.326Z,9.20
2023-03-17T07:52:29.550Z,6.40
2023-03-17T07:54:58.545Z,12.90
2023-03-17T07:57:28.782Z,6.50
2023-03-17T07:59:56.749Z,17.60
2023-03-17T08:02:25.326Z,6.90
2023-03-17T08:04:54.206Z,5.50
2023-03-17T08:07:22.265Z,12.80
2023-03-17T08:09:50.454Z,8.10
2023-03-17T08:12:18.592Z,9.40
2023-03-17T08:14:46.661Z,7.20
2023-03-17T08:17:14.755Z,6.90
2023-03-17T08:19:44.041Z,8.00
2023-03-17T08:22:13.292Z,6.60
2023-03-17T08:24:43.100Z,7.00
2023-03-17T08:27:11.860Z,7.70
2023-03-17T08:29:39.993Z,8.00
2023-03-17T08:32:08.986Z,10.40
2023-03-17T08:34:37.600Z,7.40
2023-03-17T08:37:07.959Z,7.50
2023-03-17T08:39:37.933Z,5.10
2023-03-17T08:42:06.300Z,6.10
2023-03-17T08:44:35.224Z,6.80
2023-03-17T08:47:03.850Z,6.20
2023-03-17T08:49:35.086Z,9.30
2023-03-17T08:52:03.570Z,9.20
2023-03-17T08:54:31.489Z,6.50
2023-03-17T08:56:59.392Z,7.40
2023-03-17T08:59:27.694Z,9.50
2023-03-17T09:01:57.962Z,10.00
2023-03-17T09:04:26.685Z,7.80
2023-03-17T09:07:03.742Z,8.60
2023-03-17T09:09:35.481Z,6.40
2023-03-17T09:12:07.044Z,5.80
2023-03-17T09:14:43.379Z,5.50
2023-03-17T09:17:14.587Z,9.40
2023-03-17T09:19:43.873Z,10.10
2023-03-17T09:22:18.799Z,8.70
2023-03-17T09:24:49.400Z,5.60
2023-03-17T09:27:17.482Z,6.80
2023-03-17T09:29:45.673Z,8.10
2023-03-17T09:32:14.033Z,6.40
2023-03-17T09:34:42.094Z,3.80
2023-03-17T09:37:10.412Z,4.20
2023-03-17T09:39:38.461Z,6.00
2023-03-17T09:42:36.472Z,6.20
2023-03-17T09:45:17.504Z,9.80
2023-03-17T09:50:32.290Z,5.30
2023-03-17T09:53:05.122Z,4.70
2023-03-17T09:55:35.933Z,4.80
2023-03-17T09:58:04.426Z,6.00
2023-03-17T10:00:33.010Z,5.20
2023-03-17T10:03:02.092Z,5.30
2023-03-17T10:05:34.992Z,5.40
2023-03-17T10:08:15.647Z,4.90
2023-03-17T10:10:55.100Z,3.90
2023-03-17T10:13:42.429Z,3.70
2023-03-17T10:16:18.620Z,4.60
2023-03-17T10:18:55.313Z,3.70
2023-03-17T10:21:28.914Z,4.80
2023-03-17T10:24:00.318Z,4.00
2023-03-17T10:26:34.723Z,6.50
2023-03-17T10:29:06.079Z,3.10
2023-03-17T10:31:35.751Z,3.10
2023-03-17T10:34:16.279Z,3.10
2023-03-17T10:37:07.292Z,8.10
2023-03-17T10:42:22.508Z,3.90
2023-03-17T10:45:13.610Z,4.60
2023-03-17T10:47:47.201Z,4.90
2023-03-17T10:50:15.533Z,6.00
2023-03-17T10:52:47.569Z,4.10
2023-03-17T10:55:20.285Z,4.80
2023-03-17T10:57:57.418Z,4.60
2023-03-17T11:00:29.428Z,6.30
2023-03-17T11:02:59.559Z,3.80
2023-03-17T11:05:29.821Z,3.50
2023-03-17T11:08:07.321Z,4.50
2023-03-17T11:10:40.716Z,5.00
2023-03-17T11:13:09.515Z,5.10
2023-03-17T11:15:46.290Z,4.30
2023-03-17T11:18:28.424Z,7.50
2023-03-17T11:21:09.759Z,3.60
2023-03-17T11:23:52.614Z,3.70
2023-03-17T11:26:41.870Z,5.10
2023-03-17T11:29:19.761Z,6.30
2023-03-17T11:31:56.700Z,11.90
2023-03-17T11:34:24.608Z,6.00
2023-03-17T11:37:13.988Z,5.30
2023-03-17T11:39:50.781Z,4.50
2023-03-17T11:42:36.104Z,8.70
2023-03-17T11:45:12.957Z,5.50
2023-03-17T11:48:06.112Z,9.00
2023-03-17T11:50:39.461Z,5.50
2023-03-17T11:53:43.520Z,7.80
2023-03-17T11:56:33.306Z,6.60
2023-03-17T11:59:14.095Z,5.80
2023-03-17T12:02:21.363Z,5.80
2023-03-17T12:05:05.133Z,4.80
2023-03-17T12:07:48.245Z,7.20
2023-03-17T12:10:49.515Z,8.00
2023-03-17T12:16:04.346Z,6.40
2023-03-17T12:18:38.450Z,6.70
2023-03-17T12:21:20.861Z,7.40
2023-03-17T12:23:52.439Z,6.80
2023-03-17T12:26:37.203Z,7.60
2023-03-17T12:29:43.182Z,7.50
2023-03-17T12:32:18.480Z,6.90
2023-03-17T12:35:02.463Z,5.00
2023-03-17T12:37:30.776Z,5.90
2023-03-17T12:40:15.056Z,5.70
2023-03-17T12:42:52.525Z,7.10
2023-03-17T12:45:30.614Z,4.10
2023-03-17T12:48:04.449Z,6.80
2023-03-17T12:50:35.369Z,7.00
2023-03-17T12:55:42.552Z,4.90
2023-03-17T12:58:32.517Z,7.50
2023-03-17T13:01:08.983Z,9.30
2023-03-17T13:03:45.793Z,5.40
2023-03-17T13:06:21.372Z,4.60
2023-03-17T13:08:52.606Z,4.20
2023-03-17T13:11:47.764Z,5.20
2023-03-17T13:14:27.106Z,5.40
2023-03-17T13:17:18.756Z,7.70
2023-03-17T13:20:08.422Z,7.30
2023-03-17T13:22:42.116Z,6.20
2023-03-17T13:25:27.499Z,4.00
2023-03-17T13:28:20.783Z,7.10
2023-03-17T13:30:54.907Z,7.80
2023-03-17T13:33:31.131Z,5.40
2023-03-17T13:36:10.123Z,6.40
2023-03-17T13:39:19.276Z,7.80
2023-03-17T13:42:19.822Z,5.50
2023-03-17T13:45:09.634Z,9.00
2023-03-17T13:47:42.581Z,7.70
2023-03-17T13:50:17.566Z,6.10
2023-03-17T13:52:50.083Z,4.60
2023-03-17T13:55:18.149Z,5.00
2023-03-17T13:58:16.705Z,7.70
2023-03-17T14:00:48.997Z,6.90
2023-03-17T14:03:29.261Z,6.90
2023-03-17T14:06:01.279Z,8.90
2023-03-17T14:08:35.688Z,10.50
2023-03-17T14:11:09.014Z,6.60
2023-03-17T14:13:59.993Z,5.60
2023-03-17T14:19:09.541Z,6.00
2023-03-17T14:21:37.603Z,6.10
2023-03-17T14:24:19.878Z,9.20
2023-03-17T14:26:48.888Z,11.30
2023-03-17T14:29:21.436Z,8.20
2023-03-17T14:32:00.378Z,7.50
2023-03-17T14:34:28.440Z,9.30
2023-03-17T14:37:01.605Z,7.30
2023-03-17T14:39:29.729Z,8.50
2023-03-17T14:42:05.852Z,6.20
2023-03-17T14:44:38.954Z,9.00
2023-03-17T14:47:21.011Z,5.30
2023-03-17T14:49:51.273Z,6.70
2023-03-17T14:52:27.931Z,7.80
2023-03-17T14:54:59.287Z,11.90
2023-03-17T14:57:31.818Z,8.30
2023-03-17T15:00:22.854Z,9.90
2023-03-17T15:02:58.447Z,9.70
2023-03-17T15:05:39.878Z,6.90
2023-03-17T15:08:36.572Z,7.10
2023-03-17T15:11:06.372Z,8.30
2023-03-17T15:13:37.616Z,5.30
2023-03-17T15:16:14.969Z,9.20
2023-03-17T15:18:43.815Z,7.40
2023-03-17T15:21:27.397Z,6.60
2023-03-17T15:23:55.553Z,9.70
2023-03-17T15:26:31.558Z,9.40
2023-03-17T15:29:00.560Z,14.20
2023-03-17T15:31:30.309Z,7.60
2023-03-17T15:33:58.547Z,7.00
2023-03-17T15:36:32.685Z,8.20
2023-03-17T15:39:02.656Z,8.20
2023-03-17T15:41:30.589Z,9.20
2023-03-17T15:43:58.644Z,6.70
2023-03-17T15:46:31.164Z,6.50
2023-03-17T15:49:00.052Z,7.90
2023-03-17T15:51:28.158Z,8.50
2023-03-17T15:53:56.142Z,7.10
2023-03-17T15:56:24.278Z,7.60
2023-03-17T15:58:52.669Z,6.40
2023-03-17T16:01:21.381Z,7.80
2023-03-17T16:03:50.229Z,8.70
2023-03-17T16:06:21.798Z,9.50
2023-03-17T16:08:50.346Z,9.70
2023-03-17T16:11:28.482Z,14.10
2023-03-17T16:13:59.907Z,16.10
2023-03-17T16:16:34.058Z,15.10
2023-03-17T16:19:03.031Z,19.70
2023-03-17T16:21:32.375Z,19.90
2023-03-17T16:24:00.596Z,21.90
2023-03-17T16:26:28.759Z,20.80
2023-03-17T16:28:57.388Z,24.30
2023-03-17T16:31:31.807Z,29.30
2023-03-17T16:34:00.127Z,31.10
2023-03-17T16:36:28.350Z,33.70
2023-03-17T16:38:56.243Z,44.90
2023-03-17T16:41:27.826Z,44.10
2023-03-17T16:44:01.536Z,43.20
2023-03-17T16:46:35.072Z,40.90
2023-03-17T16:49:04.623Z,38.50
2023-03-17T16:51:32.826Z,35.20
2023-03-17T16:54:00.805Z,25.90
2023-03-17T16:56:28.821Z,33.10
2023-03-17T16:58:57.546Z,45.40
2023-03-17T17:01:28.025Z,45.70
2023-03-17T17:03:57.112Z,55.20
2023-03-17T17:06:25.337Z,44.90
2023-03-17T17:08:53.407Z,44.90
2023-03-17T17:11:21.506Z,38.40
2023-03-17T17:13:49.785Z,31.80
2023-03-17T17:16:27.123Z,27.20
2023-03-17T17:18:56.038Z,29.70
2023-03-17T17:21:24.045Z,39.20
2023-03-17T17:23:53.225Z,48.30
2023-03-17T17:26:22.375Z,60.30
2023-03-17T17:28:50.561Z,39.00
2023-03-17T17:31:18.625Z,31.10
2023-03-17T17:33:46.897Z,27.20
2023-03-17T17:36:17.046Z,24.70
2023-03-17T17:38:45.596Z,24.00
2023-03-17T17:41:14.352Z,20.60
2023-03-17T17:43:42.520Z,19.70
2023-03-17T17:46:17.933Z,19.60
2023-03-17T17:48:46.325Z,16.40
2023-03-17T17:51:14.510Z,16.40
2023-03-17T17:53:42.428Z,25.10
2023-03-17T17:56:14.864Z,16.10
2023-03-17T17:58:43.777Z,16.70
2023-03-17T18:01:14.334Z,16.30
2023-03-17T18:03:43.197Z,15.50
2023-03-17T18:06:13.242Z,15.20
2023-03-17T18:08:41.525Z,14.90
2023-03-17T18:11:09.590Z,16.80
2023-03-17T18:13:39.101Z,17.00
2023-03-17T18:16:10.099Z,13.10
2023-03-17T18:18:40.832Z,10.40
2023-03-17T18:21:09.835Z,13.30
2023-03-17T18:23:39.337Z,11.50
2023-03-17T18:26:07.511Z,10.60
2023-03-17T18:28:36.086Z,13.60
2023-03-17T18:31:10.581Z,9.70
2023-03-17T18:33:45.729Z,15.90
2023-03-17T18:36:14.333Z,17.20
2023-03-17T18:38:42.347Z,14.80
2023-03-17T18:41:11.216Z,15.30
2023-03-17T18:43:41.095Z,17.40
2023-03-17T18:46:09.131Z,26.70
2023-03-17T18:48:37.226Z,17.90
2023-03-17T18:51:05.733Z,24.90
2023-03-17T18:53:35.439Z,30.30
2023-03-17T18:56:03.545Z,34.70
2023-03-17T18:58:31.410Z,278.20
2023-03-17T19:01:01.552Z,547.00
2023-03-17T19:03:32.294Z,445.80
2023-03-17T19:06:13.844Z,365.40
2023-03-17T19:08:42.679Z,171.30
2023-03-17T19:11:13.685Z,193.10
2023-03-17T19:16:10.722Z,38.80
2023-03-17T19:18:41.928Z,43.20
2023-03-17T19:21:12.216Z,43.10
2023-03-17T19:23:41.437Z,41.50
2023-03-17T19:26:10.488Z,42.90
2023-03-17T19:28:38.471Z,33.90
2023-03-17T19:31:06.642Z,27.40
2023-03-17T19:33:35.191Z,38.80
2023-03-17T19:36:08.892Z,42.90
2023-03-17T19:38:37.430Z,48.70
2023-03-17T19:41:05.704Z,42.40
2023-03-17T19:43:40.760Z,38.00
2023-03-17T19:46:11.524Z,55.00
2023-03-17T19:48:40.483Z,55.70
2023-03-17T19:51:09.562Z,52.40
2023-03-17T19:53:37.648Z,52.00
2023-03-17T19:56:06.540Z,53.40
2023-03-17T19:58:34.663Z,43.90
2023-03-17T20:01:06.977Z,44.40
2023-03-17T20:03:39.048Z,49.80
2023-03-17T20:06:08.215Z,43.00
2023-03-17T20:08:36.462Z,48.10
2023-03-17T20:11:06.032Z,45.80
2023-03-17T20:13:35.413Z,43.00
2023-03-17T20:16:04.194Z,41.10
2023-03-17T20:18:32.373Z,37.20
2023-03-17T20:21:01.722Z,36.30
2023-03-17T20:23:29.804Z,41.50
2023-03-17T20:25:57.894Z,46.60
2023-03-17T20:28:25.991Z,60.50
2023-03-17T20:30:59.603Z,66.70
2023-03-17T20:33:27.917Z,53.40
2023-03-17T20:35:55.955Z,43.20
2023-03-17T20:38:23.996Z,41.90
2023-03-17T20:40:51.996Z,36.40
2023-03-17T20:43:19.992Z,32.90
2023-03-17T20:45:50.713Z,39.20
2023-03-17T20:50:50.042Z,36.10
2023-03-17T20:53:18.357Z,38.10
2023-03-17T20:55:47.241Z,33.00
2023-03-17T20:58:15.179Z,34.00
2023-03-17T21:00:43.339Z,29.90
2023-03-17T21:03:11.628Z,29.30
2023-03-17T21:05:39.598Z,45.00
2023-03-17T21:08:08.949Z,40.10
2023-03-17T21:10:37.077Z,38.50
2023-03-17T21:13:04.992Z,36.90
2023-03-17T21:15:33.093Z,33.90
2023-03-17T21:18:01.132Z,29.70
2023-03-17T21:20:29.553Z,32.80
2023-03-17T21:22:57.909Z,37.40
2023-03-17T21:25:26.719Z,35.70
2023-03-17T21:27:54.774Z,32.70
2023-03-17T21:30:22.663Z,34.60
2023-03-17T21:32:50.561Z,32.80
2023-03-17T21:35:18.639Z,34.40
2023-03-17T21:37:46.482Z,34.80
2023-03-17T21:40:15.763Z,36.70
2023-03-17T21:42:43.895Z,34.90
2023-03-17T21:45:12.565Z,35.80
2023-03-17T21:47:41.324Z,35.30
2023-03-17T21:50:09.622Z,44.00
2023-03-17T21:52:38.133Z,38.70
2023-03-17T21:55:08.203Z,37.90
2023-03-17T21:57:37.838Z,41.60
2023-03-17T22:00:08.332Z,36.40
2023-03-17T22:02:41.761Z,39.40
2023-03-17T22:05:10.579Z,42.80
2023-03-17T22:07:41.114Z,50.90
2023-03-17T22:10:13.420Z,71.10
2023-03-17T22:12:41.300Z,92.40
2023-03-17T22:15:12.604Z,83.10
2023-03-17T22:17:40.519Z,86.10
2023-03-17T22:20:10.621Z,77.70
2023-03-17T22:22:38.630Z,65.80
2023-03-17T22:25:07.171Z,51.70
2023-03-17T22:27:35.104Z,59.40
2023-03-17T22:30:03.920Z,65.60
2023-03-17T22:32:32.253Z,69.10
2023-03-17T22:35:00.288Z,70.10
2023-03-17T22:37:28.288Z,63.70
2023-03-17T22:40:02.287Z,65.20
2023-03-17T22:42:30.137Z,31.10
2023-03-17T22:44:58.744Z,25.80
2023-03-17T22:47:26.829Z,33.70
2023-03-17T22:49:54.763Z,27.20
2023-03-17T22:52:22.768Z,30.60
2023-03-17T22:54:50.707Z,25.80
2023-03-17T22:57:18.560Z,24.30
2023-03-17T22:59:46.641Z,23.20
2023-03-17T23:02:18.417Z,22.70
2023-03-17T23:04:46.755Z,24.50
2023-03-17T23:07:14.809Z,24.70
2023-03-17T23:09:45.304Z,30.70
2023-03-17T23:12:13.325Z,25.80
2023-03-17T23:14:41.214Z,22.50
2023-03-17T23:17:09.468Z,24.40
2023-03-17T23:19:37.353Z,21.60
2023-03-17T23:22:05.382Z,21.60
2023-03-17T23:24:33.455Z,22.60
2023-03-17T23:27:01.785Z,20.30
2023-03-17T23:29:29.738Z,32.50
2023-03-17T23:31:57.822Z,31.30
2023-03-17T23:34:25.899Z,27.80
2023-03-17T23:36:53.962Z,26.10
2023-03-17T23:39:21.833Z,20.10
2023-03-17T23:41:50.162Z,24.60
2023-03-17T23:44:18.130Z,24.60
2023-03-17T23:46:46.534Z,25.50
2023-03-17T23:49:14.597Z,25.80
2023-03-17T23:51:42.823Z,22.90
2023-03-17T23:54:10.810Z,20.20
2023-03-17T23:56:38.748Z,23.20
2023-03-17T23:59:08.164Z,25.80
